sensor_id;sensor_type;location;lat;lon;timestamp;P1;durP1;ratioP1;P2;durP2;ratioP2
15500;SDS011;7852;52.228;5.990;2023-05-07T00:03:17;11.8;;;10.2;;
15500;SDS011;7852;52.228;5.990;2023-05-07T00:03:17;11.9;;;10.3;;
15500;SDS011;7852;52.228;5.990;2023-05-07T00:03:17;15.4;;;10.4;;
15500;SDS011;7852;52.228;5.990;2023-05-07T00:03:18;12.8;;;10;;
15500;SDS011;7852;52.228;5.990;2023-05-07T00:04:18;14.9;;;10.5;;
15500;SDS011;7852;52.228;5.990;2023-05-07T00:05:18;12;;;10;;
15500;SDS011;7852;52.228;5.990;2023-05-07T00:06:18;10.3;;;9.1;;
15500;SDS011;7852;52.228;5.990;2023-05-07T00:07:18;10.4;;;8.6;;
15500;SDS011;7852;52.228;5.990;2023-05-07T00:08:18;9.9;;;8.9;;
15500;SDS011;7852;52.228;5.990;2023-05-07T00:09:18;10.2;;;9.1;;
15500;SDS011;7852;52.228;5.990;2023-05-07T00:10:18;11.4;;;9.5;;
15500;SDS011;7852;52.228;5.990;2023-05-07T00:11:18;12.6;;;9.4;;
15500;SDS011;7852;52.228;5.990;2023-05-07T00:12:18;10.2;;;8;;
15500;SDS011;7852;52.228;5.990;2023-05-07T00:13:18;10.4;;;7.5;;
15500;SDS011;7852;52.228;5.990;2023-05-07T00:14:18;10.6;;;8;;
15500;SDS011;7852;52.228;5.990;2023-05-07T00:15:18;8.8;;;7.9;;
15500;SDS011;7852;52.228;5.990;2023-05-07T00:16:18;10.2;;;8.5;;
15500;SDS011;7852;52.228;5.990;2023-05-07T00:17:18;10.9;;;8.9;;
15500;SDS011;7852;52.228;5.990;2023-05-07T00:18:18;12;;;9.6;;
15500;SDS011;7852;52.228;5.990;2023-05-07T00:19:18;9.7;;;8.1;;
15500;SDS011;7852;52.228;5.990;2023-05-07T00:20:18;12.3;;;10;;
15500;SDS011;7852;52.228;5.990;2023-05-07T00:21:18;10.2;;;8.8;;
15500;SDS011;7852;52.228;5.990;2023-05-07T00:22:18;11.1;;;9.6;;
15500;SDS011;7852;52.228;5.990;2023-05-07T00:23:18;10.7;;;9.7;;
15500;SDS011;7852;52.228;5.990;2023-05-07T00:24:18;12.1;;;10.3;;
15500;SDS011;7852;52.228;5.990;2023-05-07T00:25:18;12.9;;;10.8;;
15500;SDS011;7852;52.228;5.990;2023-05-07T00:26:18;11.4;;;9;;
15500;SDS011;7852;52.228;5.990;2023-05-07T00:27:18;14.1;;;9.2;;
15500;SDS011;7852;52.228;5.990;2023-05-07T00:28:18;11.4;;;9.3;;
15500;SDS011;7852;52.228;5.990;2023-05-07T00:29:18;14.3;;;9;;
15500;SDS011;7852;52.228;5.990;2023-05-07T00:30:18;10.8;;;8.5;;
15500;SDS011;7852;52.228;5.990;2023-05-07T00:31:18;10.5;;;9.3;;
15500;SDS011;7852;52.228;5.990;2023-05-07T00:32:18;11.9;;;10.6;;
15500;SDS011;7852;52.228;5.990;2023-05-07T00:33:18;14.4;;;10.8;;
15500;SDS011;7852;52.228;5.990;2023-05-07T00:34:18;13.2;;;10.2;;
15500;SDS011;7852;52.228;5.990;2023-05-07T00:35:18;13.9;;;10.2;;
15500;SDS011;7852;52.228;5.990;2023-05-07T00:36:18;11.9;;;9.5;;
15500;SDS011;7852;52.228;5.990;2023-05-07T00:37:18;14.4;;;11.4;;
15500;SDS011;7852;52.228;5.990;2023-05-07T00:38:18;12;;;10.3;;
15500;SDS011;7852;52.228;5.990;2023-05-07T00:39:18;13.8;;;11.1;;
15500;SDS011;7852;52.228;5.990;2023-05-07T00:40:18;15.3;;;11.1;;
15500;SDS011;7852;52.228;5.990;2023-05-07T00:41:18;20.3;;;11.4;;
15500;SDS011;7852;52.228;5.990;2023-05-07T00:42:18;14.3;;;10.8;;
15500;SDS011;7852;52.228;5.990;2023-05-07T00:43:18;12.5;;;10.5;;
15500;SDS011;7852;52.228;5.990;2023-05-07T00:44:18;12.4;;;10.4;;
15500;SDS011;7852;52.228;5.990;2023-05-07T00:45:18;11.9;;;10.7;;
15500;SDS011;7852;52.228;5.990;2023-05-07T00:46:18;13;;;9.9;;
15500;SDS011;7852;52.228;5.990;2023-05-07T00:47:18;13.3;;;11.1;;
15500;SDS011;7852;52.228;5.990;2023-05-07T00:48:18;13.2;;;11;;
15500;SDS011;7852;52.228;5.990;2023-05-07T00:49:18;13;;;10.5;;
15500;SDS011;7852;52.228;5.990;2023-05-07T00:50:18;12.6;;;11;;
15500;SDS011;7852;52.228;5.990;2023-05-07T00:51:18;14.7;;;11.2;;
15500;SDS011;7852;52.228;5.990;2023-05-07T00:52:19;12.2;;;10.9;;
15500;SDS011;7852;52.228;5.990;2023-05-07T00:53:18;12.6;;;9.9;;
15500;SDS011;7852;52.228;5.990;2023-05-07T00:54:18;12.2;;;10.6;;
15500;SDS011;7852;52.228;5.990;2023-05-07T00:55:18;12.6;;;11.3;;
15500;SDS011;7852;52.228;5.990;2023-05-07T00:56:18;12.2;;;10.9;;
15500;SDS011;7852;52.228;5.990;2023-05-07T00:57:18;12.4;;;10.6;;
15500;SDS011;7852;52.228;5.990;2023-05-07T00:58:19;12.9;;;10.9;;
15500;SDS011;7852;52.228;5.990;2023-05-07T00:59:18;13.1;;;11.3;;
15500;SDS011;7852;52.228;5.990;2023-05-07T01:00:18;16.2;;;12.3;;
15500;SDS011;7852;52.228;5.990;2023-05-07T01:01:18;14.7;;;11.8;;
15500;SDS011;7852;52.228;5.990;2023-05-07T01:02:18;11.6;;;10.5;;
15500;SDS011;7852;52.228;5.990;2023-05-07T01:03:18;14.2;;;11.4;;
15500;SDS011;7852;52.228;5.990;2023-05-07T01:04:18;15;;;11.9;;
15500;SDS011;7852;52.228;5.990;2023-05-07T01:05:18;14.9;;;12.2;;
15500;SDS011;7852;52.228;5.990;2023-05-07T01:06:18;15.7;;;12;;
15500;SDS011;7852;52.228;5.990;2023-05-07T01:07:18;13.4;;;11.3;;
15500;SDS011;7852;52.228;5.990;2023-05-07T01:08:18;16.1;;;12;;
15500;SDS011;7852;52.228;5.990;2023-05-07T01:09:19;15.7;;;11.2;;
15500;SDS011;7852;52.228;5.990;2023-05-07T01:10:18;14.2;;;11.2;;
15500;SDS011;7852;52.228;5.990;2023-05-07T01:11:18;13.5;;;11.9;;
15500;SDS011;7852;52.228;5.990;2023-05-07T01:12:18;12.5;;;11.2;;
15500;SDS011;7852;52.228;5.990;2023-05-07T01:13:18;12.6;;;10.6;;
15500;SDS011;7852;52.228;5.990;2023-05-07T01:14:18;15.5;;;12.3;;
15500;SDS011;7852;52.228;5.990;2023-05-07T01:15:18;15.7;;;12.4;;
15500;SDS011;7852;52.228;5.990;2023-05-07T01:16:18;16.2;;;11.6;;
15500;SDS011;7852;52.228;5.990;2023-05-07T01:17:18;13.6;;;11.8;;
15500;SDS011;7852;52.228;5.990;2023-05-07T01:18:18;12.5;;;11.2;;
15500;SDS011;7852;52.228;5.990;2023-05-07T01:19:18;15;;;12.2;;
15500;SDS011;7852;52.228;5.990;2023-05-07T01:20:18;17.4;;;12;;
15500;SDS011;7852;52.228;5.990;2023-05-07T01:21:18;16.6;;;12.2;;
15500;SDS011;7852;52.228;5.990;2023-05-07T01:22:23;16.4;;;12.8;;
15500;SDS011;7852;52.228;5.990;2023-05-07T01:23:18;16.6;;;12.6;;
15500;SDS011;7852;52.228;5.990;2023-05-07T01:24:18;17.6;;;12.8;;
15500;SDS011;7852;52.228;5.990;2023-05-07T01:25:18;13.7;;;12.2;;
15500;SDS011;7852;52.228;5.990;2023-05-07T01:26:18;15.9;;;12.6;;
15500;SDS011;7852;52.228;5.990;2023-05-07T01:27:18;13.9;;;11.4;;
15500;SDS011;7852;52.228;5.990;2023-05-07T01:28:18;15.8;;;12.7;;
15500;SDS011;7852;52.228;5.990;2023-05-07T01:29:18;13.1;;;11.4;;
15500;SDS011;7852;52.228;5.990;2023-05-07T01:30:19;14.7;;;12.1;;
15500;SDS011;7852;52.228;5.990;2023-05-07T01:31:18;14.6;;;12.1;;
15500;SDS011;7852;52.228;5.990;2023-05-07T01:32:19;16;;;12.4;;
15500;SDS011;7852;52.228;5.990;2023-05-07T01:33:19;15.1;;;12.8;;
15500;SDS011;7852;52.228;5.990;2023-05-07T01:34:18;14.4;;;12.2;;
15500;SDS011;7852;52.228;5.990;2023-05-07T01:35:19;12.4;;;11.1;;
15500;SDS011;7852;52.228;5.990;2023-05-07T01:36:18;14;;;12.3;;
15500;SDS011;7852;52.228;5.990;2023-05-07T01:37:18;14.1;;;12.4;;
15500;SDS011;7852;52.228;5.990;2023-05-07T01:38:18;14.6;;;12.2;;
15500;SDS011;7852;52.228;5.990;2023-05-07T01:39:18;14.8;;;12.2;;
15500;SDS011;7852;52.228;5.990;2023-05-07T01:40:18;14.8;;;12.1;;
15500;SDS011;7852;52.228;5.990;2023-05-07T01:41:18;14.1;;;11.9;;
15500;SDS011;7852;52.228;5.990;2023-05-07T01:42:18;15.9;;;13.1;;
15500;SDS011;7852;52.228;5.990;2023-05-07T01:43:18;15.2;;;12.4;;
15500;SDS011;7852;52.228;5.990;2023-05-07T01:44:18;12.1;;;10.8;;
15500;SDS011;7852;52.228;5.990;2023-05-07T01:45:18;13.3;;;11.6;;
15500;SDS011;7852;52.228;5.990;2023-05-07T01:46:18;15.3;;;12;;
15500;SDS011;7852;52.228;5.990;2023-05-07T01:47:18;14.9;;;12.8;;
15500;SDS011;7852;52.228;5.990;2023-05-07T01:48:18;17;;;13.6;;
15500;SDS011;7852;52.228;5.990;2023-05-07T01:49:18;16.7;;;13.2;;
15500;SDS011;7852;52.228;5.990;2023-05-07T01:50:18;13.6;;;12;;
15500;SDS011;7852;52.228;5.990;2023-05-07T01:51:18;12.9;;;10.8;;
15500;SDS011;7852;52.228;5.990;2023-05-07T01:52:18;13.3;;;11.1;;
15500;SDS011;7852;52.228;5.990;2023-05-07T01:53:18;13.1;;;11.7;;
15500;SDS011;7852;52.228;5.990;2023-05-07T01:54:18;17.3;;;11.7;;
15500;SDS011;7852;52.228;5.990;2023-05-07T01:55:18;14.8;;;10.1;;
15500;SDS011;7852;52.228;5.990;2023-05-07T01:56:18;15;;;9.5;;
15500;SDS011;7852;52.228;5.990;2023-05-07T01:57:18;12.7;;;9.3;;
15500;SDS011;7852;52.228;5.990;2023-05-07T01:58:18;19.4;;;10.7;;
15500;SDS011;7852;52.228;5.990;2023-05-07T01:59:18;9.8;;;8.4;;
15500;SDS011;7852;52.228;5.990;2023-05-07T02:00:19;10.2;;;9.1;;
15500;SDS011;7852;52.228;5.990;2023-05-07T02:01:18;15.1;;;8.6;;
15500;SDS011;7852;52.228;5.990;2023-05-07T02:02:18;15.2;;;8.9;;
15500;SDS011;7852;52.228;5.990;2023-05-07T02:03:18;57.4;;;12.3;;
15500;SDS011;7852;52.228;5.990;2023-05-07T02:04:18;11.4;;;8.3;;
15500;SDS011;7852;52.228;5.990;2023-05-07T02:05:18;12.1;;;8.4;;
15500;SDS011;7852;52.228;5.990;2023-05-07T02:06:18;21.2;;;10.7;;
15500;SDS011;7852;52.228;5.990;2023-05-07T02:07:18;54.4;;;13.4;;
15500;SDS011;7852;52.228;5.990;2023-05-07T02:08:18;21.2;;;8.6;;
15500;SDS011;7852;52.228;5.990;2023-05-07T02:09:18;13.3;;;10;;
15500;SDS011;7852;52.228;5.990;2023-05-07T02:10:18;20.8;;;10.6;;
15500;SDS011;7852;52.228;5.990;2023-05-07T02:11:18;11.8;;;9.7;;
15500;SDS011;7852;52.228;5.990;2023-05-07T02:12:18;12.5;;;9.1;;
15500;SDS011;7852;52.228;5.990;2023-05-07T02:13:18;129.8;;;15.9;;
15500;SDS011;7852;52.228;5.990;2023-05-07T02:14:18;23.6;;;8.1;;
15500;SDS011;7852;52.228;5.990;2023-05-07T02:15:18;28;;;9.8;;
15500;SDS011;7852;52.228;5.990;2023-05-07T02:16:18;58.5;;;12.9;;
15500;SDS011;7852;52.228;5.990;2023-05-07T02:17:18;73.4;;;13.5;;
15500;SDS011;7852;52.228;5.990;2023-05-07T02:18:18;70;;;13.2;;
15500;SDS011;7852;52.228;5.990;2023-05-07T02:19:18;114.3;;;15.7;;
15500;SDS011;7852;52.228;5.990;2023-05-07T02:20:18;122.3;;;19.1;;
15500;SDS011;7852;52.228;5.990;2023-05-07T02:21:18;161.1;;;20.4;;
15500;SDS011;7852;52.228;5.990;2023-05-07T02:22:18;91.5;;;15.1;;
15500;SDS011;7852;52.228;5.990;2023-05-07T02:23:18;58.3;;;12.3;;
15500;SDS011;7852;52.228;5.990;2023-05-07T02:24:18;25.4;;;12.2;;
15500;SDS011;7852;52.228;5.990;2023-05-07T02:25:18;16.5;;;11.5;;
15500;SDS011;7852;52.228;5.990;2023-05-07T02:26:18;19.1;;;11.9;;
15500;SDS011;7852;52.228;5.990;2023-05-07T02:27:18;53.1;;;14.6;;
15500;SDS011;7852;52.228;5.990;2023-05-07T02:28:18;18.8;;;12.6;;
15500;SDS011;7852;52.228;5.990;2023-05-07T02:29:18;36.5;;;14.1;;
15500;SDS011;7852;52.228;5.990;2023-05-07T02:30:18;15.7;;;12.8;;
15500;SDS011;7852;52.228;5.990;2023-05-07T02:31:18;22.1;;;14.4;;
15500;SDS011;7852;52.228;5.990;2023-05-07T02:32:18;15.7;;;12.5;;
15500;SDS011;7852;52.228;5.990;2023-05-07T02:33:18;25.1;;;15;;
15500;SDS011;7852;52.228;5.990;2023-05-07T02:34:18;17;;;14.3;;
15500;SDS011;7852;52.228;5.990;2023-05-07T02:35:18;20.9;;;14;;
15500;SDS011;7852;52.228;5.990;2023-05-07T02:36:18;20.8;;;15;;
15500;SDS011;7852;52.228;5.990;2023-05-07T02:37:18;22;;;14.5;;
15500;SDS011;7852;52.228;5.990;2023-05-07T02:38:18;24.5;;;15.9;;
15500;SDS011;7852;52.228;5.990;2023-05-07T02:39:18;20.9;;;15;;
15500;SDS011;7852;52.228;5.990;2023-05-07T02:40:18;22.7;;;16.5;;
15500;SDS011;7852;52.228;5.990;2023-05-07T02:41:18;19.9;;;15.4;;
15500;SDS011;7852;52.228;5.990;2023-05-07T02:42:18;18.6;;;14.8;;
15500;SDS011;7852;52.228;5.990;2023-05-07T02:43:18;20.6;;;16.7;;
15500;SDS011;7852;52.228;5.990;2023-05-07T02:44:18;22.8;;;17.1;;
15500;SDS011;7852;52.228;5.990;2023-05-07T02:45:18;21.2;;;16.8;;
15500;SDS011;7852;52.228;5.990;2023-05-07T02:46:18;23.9;;;16.4;;
15500;SDS011;7852;52.228;5.990;2023-05-07T02:47:18;21.6;;;17.9;;
15500;SDS011;7852;52.228;5.990;2023-05-07T02:48:18;16.9;;;14.7;;
15500;SDS011;7852;52.228;5.990;2023-05-07T02:49:18;23.6;;;17;;
15500;SDS011;7852;52.228;5.990;2023-05-07T02:50:18;23.7;;;17.6;;
15500;SDS011;7852;52.228;5.990;2023-05-07T02:51:19;21.7;;;17.3;;
15500;SDS011;7852;52.228;5.990;2023-05-07T02:52:18;21.2;;;17.2;;
15500;SDS011;7852;52.228;5.990;2023-05-07T02:53:18;22.7;;;17;;
15500;SDS011;7852;52.228;5.990;2023-05-07T02:54:18;21.8;;;17.9;;
15500;SDS011;7852;52.228;5.990;2023-05-07T02:55:18;25;;;17.9;;
15500;SDS011;7852;52.228;5.990;2023-05-07T02:56:18;20.3;;;16.4;;
15500;SDS011;7852;52.228;5.990;2023-05-07T02:57:18;24.7;;;16.8;;
15500;SDS011;7852;52.228;5.990;2023-05-07T02:58:18;25.6;;;18.2;;
15500;SDS011;7852;52.228;5.990;2023-05-07T02:59:18;23.5;;;17.1;;
15500;SDS011;7852;52.228;5.990;2023-05-07T03:00:19;24.5;;;17.5;;
15500;SDS011;7852;52.228;5.990;2023-05-07T03:01:18;35.6;;;16.9;;
15500;SDS011;7852;52.228;5.990;2023-05-07T03:02:18;41.6;;;15.5;;
15500;SDS011;7852;52.228;5.990;2023-05-07T03:03:18;75.8;;;15;;
15500;SDS011;7852;52.228;5.990;2023-05-07T03:04:18;64.9;;;15.8;;
15500;SDS011;7852;52.228;5.990;2023-05-07T03:05:18;41.1;;;14.8;;
15500;SDS011;7852;52.228;5.990;2023-05-07T03:06:18;28.1;;;13.4;;
15500;SDS011;7852;52.228;5.990;2023-05-07T03:07:18;45.9;;;15.1;;
15500;SDS011;7852;52.228;5.990;2023-05-07T03:08:18;37.1;;;17;;
15500;SDS011;7852;52.228;5.990;2023-05-07T03:09:18;21.1;;;15.2;;
15500;SDS011;7852;52.228;5.990;2023-05-07T03:10:18;23.2;;;16.9;;
15500;SDS011;7852;52.228;5.990;2023-05-07T03:11:18;22.9;;;17.5;;
15500;SDS011;7852;52.228;5.990;2023-05-07T03:12:18;21.6;;;17.5;;
15500;SDS011;7852;52.228;5.990;2023-05-07T03:13:18;23.1;;;18.4;;
15500;SDS011;7852;52.228;5.990;2023-05-07T03:14:18;23.1;;;18.1;;
15500;SDS011;7852;52.228;5.990;2023-05-07T03:15:18;26.8;;;17.7;;
15500;SDS011;7852;52.228;5.990;2023-05-07T03:16:18;28.2;;;17.8;;
15500;SDS011;7852;52.228;5.990;2023-05-07T03:17:18;22.4;;;18.1;;
15500;SDS011;7852;52.228;5.990;2023-05-07T03:18:18;22;;;17.3;;
15500;SDS011;7852;52.228;5.990;2023-05-07T03:19:18;26.2;;;19.7;;
15500;SDS011;7852;52.228;5.990;2023-05-07T03:20:18;26;;;19.7;;
15500;SDS011;7852;52.228;5.990;2023-05-07T03:21:18;24.6;;;18.4;;
15500;SDS011;7852;52.228;5.990;2023-05-07T03:22:18;26.8;;;20.2;;
15500;SDS011;7852;52.228;5.990;2023-05-07T03:23:18;28.8;;;19.3;;
15500;SDS011;7852;52.228;5.990;2023-05-07T03:24:18;25.9;;;19.2;;
15500;SDS011;7852;52.228;5.990;2023-05-07T03:25:18;31.2;;;20.5;;
15500;SDS011;7852;52.228;5.990;2023-05-07T03:26:18;30;;;18.9;;
15500;SDS011;7852;52.228;5.990;2023-05-07T03:27:18;32.1;;;19.9;;
15500;SDS011;7852;52.228;5.990;2023-05-07T03:28:18;21.6;;;18.1;;
15500;SDS011;7852;52.228;5.990;2023-05-07T03:29:18;28.6;;;19.3;;
15500;SDS011;7852;52.228;5.990;2023-05-07T03:30:18;25.8;;;19.5;;
15500;SDS011;7852;52.228;5.990;2023-05-07T03:31:18;27.8;;;19.5;;
15500;SDS011;7852;52.228;5.990;2023-05-07T03:32:18;25.6;;;19.6;;
15500;SDS011;7852;52.228;5.990;2023-05-07T03:33:18;26.4;;;20.2;;
15500;SDS011;7852;52.228;5.990;2023-05-07T03:34:18;23.4;;;19.2;;
15500;SDS011;7852;52.228;5.990;2023-05-07T03:35:18;22.3;;;18.6;;
15500;SDS011;7852;52.228;5.990;2023-05-07T03:36:18;22.4;;;17.8;;
15500;SDS011;7852;52.228;5.990;2023-05-07T03:37:18;25.6;;;18.9;;
15500;SDS011;7852;52.228;5.990;2023-05-07T03:38:18;29.1;;;19.9;;
15500;SDS011;7852;52.228;5.990;2023-05-07T03:39:18;27.6;;;19.3;;
15500;SDS011;7852;52.228;5.990;2023-05-07T03:40:18;24.7;;;18.9;;
15500;SDS011;7852;52.228;5.990;2023-05-07T03:41:18;25.6;;;19.4;;
15500;SDS011;7852;52.228;5.990;2023-05-07T03:42:18;23.9;;;18.4;;
15500;SDS011;7852;52.228;5.990;2023-05-07T03:43:18;27.7;;;19.4;;
15500;SDS011;7852;52.228;5.990;2023-05-07T03:44:18;26.7;;;19;;
15500;SDS011;7852;52.228;5.990;2023-05-07T03:45:18;24.9;;;18.1;;
15500;SDS011;7852;52.228;5.990;2023-05-07T03:46:18;23.4;;;18.5;;
15500;SDS011;7852;52.228;5.990;2023-05-07T03:47:18;24.2;;;19.4;;
15500;SDS011;7852;52.228;5.990;2023-05-07T03:48:18;23.4;;;19.3;;
15500;SDS011;7852;52.228;5.990;2023-05-07T03:49:18;25.8;;;19;;
15500;SDS011;7852;52.228;5.990;2023-05-07T03:50:19;25.2;;;18.8;;
15500;SDS011;7852;52.228;5.990;2023-05-07T03:51:18;27.4;;;19.6;;
15500;SDS011;7852;52.228;5.990;2023-05-07T03:52:18;23.5;;;18.6;;
15500;SDS011;7852;52.228;5.990;2023-05-07T03:53:18;25.1;;;18.8;;
15500;SDS011;7852;52.228;5.990;2023-05-07T03:54:18;23;;;19.8;;
15500;SDS011;7852;52.228;5.990;2023-05-07T03:55:18;23.1;;;19.3;;
15500;SDS011;7852;52.228;5.990;2023-05-07T03:56:18;25.1;;;18.4;;
15500;SDS011;7852;52.228;5.990;2023-05-07T03:57:18;26.3;;;19.5;;
15500;SDS011;7852;52.228;5.990;2023-05-07T03:58:18;24.1;;;18.8;;
15500;SDS011;7852;52.228;5.990;2023-05-07T03:59:18;25.1;;;19.5;;
15500;SDS011;7852;52.228;5.990;2023-05-07T04:00:18;24.3;;;18.8;;
15500;SDS011;7852;52.228;5.990;2023-05-07T04:01:18;26.4;;;18.9;;
15500;SDS011;7852;52.228;5.990;2023-05-07T04:02:18;25.6;;;19;;
15500;SDS011;7852;52.228;5.990;2023-05-07T04:03:18;21.7;;;17.6;;
15500;SDS011;7852;52.228;5.990;2023-05-07T04:04:18;21.8;;;17.4;;
15500;SDS011;7852;52.228;5.990;2023-05-07T04:05:18;26.1;;;18.5;;
15500;SDS011;7852;52.228;5.990;2023-05-07T04:06:18;26.3;;;19.3;;
15500;SDS011;7852;52.228;5.990;2023-05-07T04:07:18;27.1;;;18.3;;
15500;SDS011;7852;52.228;5.990;2023-05-07T04:08:20;18.8;;;15.8;;
15500;SDS011;7852;52.228;5.990;2023-05-07T04:09:18;21.9;;;15.8;;
15500;SDS011;7852;52.228;5.990;2023-05-07T04:10:18;19;;;14.3;;
15500;SDS011;7852;52.228;5.990;2023-05-07T04:11:18;22.1;;;17.3;;
15500;SDS011;7852;52.228;5.990;2023-05-07T04:12:18;22.6;;;17.2;;
15500;SDS011;7852;52.228;5.990;2023-05-07T04:13:18;20.5;;;14.4;;
15500;SDS011;7852;52.228;5.990;2023-05-07T04:14:18;18.8;;;15.1;;
15500;SDS011;7852;52.228;5.990;2023-05-07T04:15:18;22;;;15.7;;
15500;SDS011;7852;52.228;5.990;2023-05-07T04:16:18;27.4;;;17.7;;
15500;SDS011;7852;52.228;5.990;2023-05-07T04:17:18;26.7;;;18.2;;
15500;SDS011;7852;52.228;5.990;2023-05-07T04:18:18;20.7;;;18.1;;
15500;SDS011;7852;52.228;5.990;2023-05-07T04:19:18;24.5;;;18.1;;
15500;SDS011;7852;52.228;5.990;2023-05-07T04:20:18;24;;;17.8;;
15500;SDS011;7852;52.228;5.990;2023-05-07T04:21:20;23.3;;;18;;
15500;SDS011;7852;52.228;5.990;2023-05-07T04:22:18;23.3;;;18.1;;
15500;SDS011;7852;52.228;5.990;2023-05-07T04:23:18;29.2;;;20;;
15500;SDS011;7852;52.228;5.990;2023-05-07T04:24:18;17.4;;;14.3;;
15500;SDS011;7852;52.228;5.990;2023-05-07T04:25:18;17.9;;;15.3;;
15500;SDS011;7852;52.228;5.990;2023-05-07T04:26:18;23.6;;;17.2;;
15500;SDS011;7852;52.228;5.990;2023-05-07T04:27:18;21.7;;;15.8;;
15500;SDS011;7852;52.228;5.990;2023-05-07T04:28:18;21.3;;;17;;
15500;SDS011;7852;52.228;5.990;2023-05-07T04:29:18;21.3;;;16.3;;
15500;SDS011;7852;52.228;5.990;2023-05-07T04:30:18;25.1;;;16.8;;
15500;SDS011;7852;52.228;5.990;2023-05-07T04:31:18;23.8;;;18.3;;
15500;SDS011;7852;52.228;5.990;2023-05-07T04:32:18;22.7;;;16.5;;
15500;SDS011;7852;52.228;5.990;2023-05-07T04:33:18;23.7;;;18.4;;
15500;SDS011;7852;52.228;5.990;2023-05-07T04:34:18;26.8;;;17.9;;
15500;SDS011;7852;52.228;5.990;2023-05-07T04:35:18;24.5;;;18.4;;
15500;SDS011;7852;52.228;5.990;2023-05-07T04:36:18;23.3;;;16.8;;
15500;SDS011;7852;52.228;5.990;2023-05-07T04:37:18;17.5;;;12.8;;
15500;SDS011;7852;52.228;5.990;2023-05-07T04:38:18;26.3;;;15.6;;
15500;SDS011;7852;52.228;5.990;2023-05-07T04:39:18;19.7;;;15.4;;
15500;SDS011;7852;52.228;5.990;2023-05-07T04:40:18;10.1;;;8.6;;
15500;SDS011;7852;52.228;5.990;2023-05-07T04:41:19;20.5;;;15.5;;
15500;SDS011;7852;52.228;5.990;2023-05-07T04:42:18;23;;;17;;
15500;SDS011;7852;52.228;5.990;2023-05-07T04:43:18;23.8;;;16.7;;
15500;SDS011;7852;52.228;5.990;2023-05-07T04:44:18;21.3;;;14.5;;
15500;SDS011;7852;52.228;5.990;2023-05-07T04:45:18;24.4;;;16.3;;
15500;SDS011;7852;52.228;5.990;2023-05-07T04:46:18;23;;;16.9;;
15500;SDS011;7852;52.228;5.990;2023-05-07T04:47:18;23.5;;;16.6;;
15500;SDS011;7852;52.228;5.990;2023-05-07T04:48:18;22.6;;;18.4;;
15500;SDS011;7852;52.228;5.990;2023-05-07T04:49:18;19.9;;;16.4;;
15500;SDS011;7852;52.228;5.990;2023-05-07T04:50:18;21;;;16.1;;
15500;SDS011;7852;52.228;5.990;2023-05-07T04:51:18;23.3;;;17.4;;
15500;SDS011;7852;52.228;5.990;2023-05-07T04:52:18;21.6;;;16.1;;
15500;SDS011;7852;52.228;5.990;2023-05-07T04:53:19;20.3;;;16.3;;
15500;SDS011;7852;52.228;5.990;2023-05-07T04:54:18;22.3;;;17.5;;
15500;SDS011;7852;52.228;5.990;2023-05-07T04:55:18;20.7;;;14.7;;
15500;SDS011;7852;52.228;5.990;2023-05-07T04:56:18;21.4;;;15.9;;
15500;SDS011;7852;52.228;5.990;2023-05-07T04:57:18;20.9;;;15.5;;
15500;SDS011;7852;52.228;5.990;2023-05-07T04:58:18;23.2;;;16.7;;
15500;SDS011;7852;52.228;5.990;2023-05-07T04:59:18;23;;;14.6;;
15500;SDS011;7852;52.228;5.990;2023-05-07T05:00:18;21.6;;;16.1;;
15500;SDS011;7852;52.228;5.990;2023-05-07T05:01:18;19;;;14.9;;
15500;SDS011;7852;52.228;5.990;2023-05-07T05:02:18;18.8;;;14.9;;
15500;SDS011;7852;52.228;5.990;2023-05-07T05:03:18;24.8;;;16.4;;
15500;SDS011;7852;52.228;5.990;2023-05-07T05:04:18;20.3;;;16.6;;
15500;SDS011;7852;52.228;5.990;2023-05-07T05:05:19;21.9;;;15.2;;
15500;SDS011;7852;52.228;5.990;2023-05-07T05:06:18;19.2;;;14.8;;
15500;SDS011;7852;52.228;5.990;2023-05-07T05:07:18;23.8;;;13.9;;
15500;SDS011;7852;52.228;5.990;2023-05-07T05:08:18;18.2;;;12.8;;
15500;SDS011;7852;52.228;5.990;2023-05-07T05:09:18;18.9;;;14.5;;
15500;SDS011;7852;52.228;5.990;2023-05-07T05:10:18;21.8;;;16.2;;
15500;SDS011;7852;52.228;5.990;2023-05-07T05:11:18;20.4;;;14.2;;
15500;SDS011;7852;52.228;5.990;2023-05-07T05:12:18;17.2;;;13.6;;
15500;SDS011;7852;52.228;5.990;2023-05-07T05:13:18;24.1;;;16;;
15500;SDS011;7852;52.228;5.990;2023-05-07T05:14:18;19.7;;;14.3;;
15500;SDS011;7852;52.228;5.990;2023-05-07T05:15:18;18.8;;;13.4;;
15500;SDS011;7852;52.228;5.990;2023-05-07T05:16:18;21.2;;;14.1;;
15500;SDS011;7852;52.228;5.990;2023-05-07T05:17:18;20.9;;;15.4;;
15500;SDS011;7852;52.228;5.990;2023-05-07T05:18:18;22.8;;;16.1;;
15500;SDS011;7852;52.228;5.990;2023-05-07T05:19:18;21.7;;;15.2;;
15500;SDS011;7852;52.228;5.990;2023-05-07T05:20:18;21.6;;;14.9;;
15500;SDS011;7852;52.228;5.990;2023-05-07T05:21:18;17.1;;;13.2;;
15500;SDS011;7852;52.228;5.990;2023-05-07T05:22:18;13;;;11.4;;
15500;SDS011;7852;52.228;5.990;2023-05-07T05:23:18;22.3;;;14.8;;
15500;SDS011;7852;52.228;5.990;2023-05-07T05:24:18;16;;;12.7;;
15500;SDS011;7852;52.228;5.990;2023-05-07T05:25:18;10.6;;;8.6;;
15500;SDS011;7852;52.228;5.990;2023-05-07T05:26:18;12.5;;;9.2;;
15500;SDS011;7852;52.228;5.990;2023-05-07T05:27:18;15.3;;;11;;
15500;SDS011;7852;52.228;5.990;2023-05-07T05:28:18;18.5;;;11.3;;
15500;SDS011;7852;52.228;5.990;2023-05-07T05:29:18;12;;;9.2;;
15500;SDS011;7852;52.228;5.990;2023-05-07T05:30:18;20.6;;;15.1;;
15500;SDS011;7852;52.228;5.990;2023-05-07T05:31:18;12;;;9.9;;
15500;SDS011;7852;52.228;5.990;2023-05-07T05:32:18;22.4;;;15;;
15500;SDS011;7852;52.228;5.990;2023-05-07T05:33:18;13.1;;;9.9;;
15500;SDS011;7852;52.228;5.990;2023-05-07T05:34:18;20.1;;;14.5;;
15500;SDS011;7852;52.228;5.990;2023-05-07T05:35:18;18.5;;;13.3;;
15500;SDS011;7852;52.228;5.990;2023-05-07T05:36:18;24.8;;;15.4;;
15500;SDS011;7852;52.228;5.990;2023-05-07T05:37:18;19.8;;;14.6;;
15500;SDS011;7852;52.228;5.990;2023-05-07T05:38:18;11.9;;;8.9;;
15500;SDS011;7852;52.228;5.990;2023-05-07T05:39:18;21.2;;;15.8;;
15500;SDS011;7852;52.228;5.990;2023-05-07T05:40:18;18.2;;;13.7;;
15500;SDS011;7852;52.228;5.990;2023-05-07T05:41:18;8.7;;;7.4;;
15500;SDS011;7852;52.228;5.990;2023-05-07T05:42:18;6.9;;;6.1;;
15500;SDS011;7852;52.228;5.990;2023-05-07T05:43:18;6.1;;;4.7;;
15500;SDS011;7852;52.228;5.990;2023-05-07T05:44:18;7.6;;;6.3;;
15500;SDS011;7852;52.228;5.990;2023-05-07T05:45:18;12.8;;;10;;
15500;SDS011;7852;52.228;5.990;2023-05-07T05:46:18;18.5;;;13.1;;
15500;SDS011;7852;52.228;5.990;2023-05-07T05:47:18;15.6;;;11.3;;
15500;SDS011;7852;52.228;5.990;2023-05-07T05:48:18;18.6;;;14.4;;
15500;SDS011;7852;52.228;5.990;2023-05-07T05:49:18;20.6;;;14.2;;
15500;SDS011;7852;52.228;5.990;2023-05-07T05:50:18;14.8;;;11.8;;
15500;SDS011;7852;52.228;5.990;2023-05-07T05:51:20;11.2;;;9.3;;
15500;SDS011;7852;52.228;5.990;2023-05-07T05:52:18;7.5;;;5.8;;
15500;SDS011;7852;52.228;5.990;2023-05-07T05:53:18;8.6;;;6.1;;
15500;SDS011;7852;52.228;5.990;2023-05-07T05:54:18;13.5;;;10.6;;
15500;SDS011;7852;52.228;5.990;2023-05-07T05:55:19;6.1;;;5.2;;
15500;SDS011;7852;52.228;5.990;2023-05-07T05:56:19;7.7;;;5.5;;
15500;SDS011;7852;52.228;5.990;2023-05-07T05:57:18;5;;;4.2;;
15500;SDS011;7852;52.228;5.990;2023-05-07T05:58:18;9.9;;;6.9;;
15500;SDS011;7852;52.228;5.990;2023-05-07T05:59:18;20.7;;;15.1;;
15500;SDS011;7852;52.228;5.990;2023-05-07T06:00:19;22.2;;;17.2;;
15500;SDS011;7852;52.228;5.990;2023-05-07T06:01:18;7.4;;;6.3;;
15500;SDS011;7852;52.228;5.990;2023-05-07T06:02:18;12.4;;;8.2;;
15500;SDS011;7852;52.228;5.990;2023-05-07T06:03:18;14.7;;;11.4;;
15500;SDS011;7852;52.228;5.990;2023-05-07T06:04:18;19.6;;;15.8;;
15500;SDS011;7852;52.228;5.990;2023-05-07T06:05:18;13.1;;;9.1;;
15500;SDS011;7852;52.228;5.990;2023-05-07T06:06:18;16.6;;;10.7;;
15500;SDS011;7852;52.228;5.990;2023-05-07T06:07:18;14.2;;;11.4;;
15500;SDS011;7852;52.228;5.990;2023-05-07T06:08:18;24.6;;;17;;
15500;SDS011;7852;52.228;5.990;2023-05-07T06:09:18;9.3;;;6.8;;
15500;SDS011;7852;52.228;5.990;2023-05-07T06:10:19;24.4;;;16.6;;